Time;durP1;ratioP1;P1;durP2;ratioP2;P2;SDS_P1;SDS_P2;PMS_P1;PMS_P2;Temp;Humidity;BMP_temperature;BMP_pressure;BME280_temperature;BME280_humidity;BME280_pressure;Samples;Min_cycle;Max_cycle;Signal;HPM_P1;HPM_P2
2022/05/29 00:00:10;;;;;;;145.25;138.60;;;9.40;99.90;;;;;;5133855;28;20059;-59
2022/05/29 00:02:37;;;;;;;113.88;107.95;;;9.40;99.90;;;;;;5114806;28;20059;-59
2022/05/29 00:05:04;;;;;;;135.10;128.05;;;9.40;99.90;;;;;;5132624;28;20042;-60
2022/05/29 00:07:30;;;;;;;131.50;124.90;;;9.50;99.90;;;;;;5133752;28;20050;-60
2022/05/29 00:09:56;;;;;;;131.48;125.07;;;9.60;99.90;;;;;;5133466;28;20190;-60
2022/05/29 00:12:23;;;;;;;118.15;112.60;;;9.60;99.90;;;;;;5133102;28;20051;-60
2022/05/29 00:14:49;;;;;;;108.68;103.28;;;9.70;99.90;;;;;;5111394;28;20075;-60
2022/05/29 00:17:17;;;;;;;86.95;82.63;;;9.70;99.90;;;;;;5112750;28;20055;-59
2022/05/29 00:19:43;;;;;;;89.05;84.03;;;9.80;99.90;;;;;;5111232;28;20126;-59
2022/05/29 00:22:12;;;;;;;98.22;92.80;;;9.80;99.90;;;;;;5115144;28;20103;-60
2022/05/29 00:24:39;;;;;;;114.25;108.45;;;9.80;99.90;;;;;;5132225;28;20404;-60
2022/05/29 00:27:05;;;;;;;90.00;85.55;;;9.90;99.90;;;;;;5133713;28;20043;-60
2022/05/29 00:29:30;;;;;;;87.78;82.70;;;9.90;99.90;;;;;;5133214;28;20039;-60
2022/05/29 00:31:56;;;;;;;77.82;73.90;;;10.00;99.90;;;;;;5131853;28;20047;-60
2022/05/29 00:34:22;;;;;;;94.35;89.78;;;10.00;99.90;;;;;;5133503;28;20114;-59
2022/05/29 00:36:48;;;;;;;80.40;76.00;;;10.00;99.90;;;;;;5133466;28;20473;-59
2022/05/29 00:39:16;;;;;;;86.15;81.50;;;10.00;99.90;;;;;;5132212;28;20514;-59
2022/05/29 00:41:42;;;;;;;84.53;80.22;;;10.00;99.90;;;;;;5132934;28;20111;-59
2022/05/29 00:44:12;;;;;;;74.82;71.18;;;9.90;99.90;;;;;;5133165;28;20047;-59
2022/05/29 00:46:42;;;;;;;74.63;70.47;;;9.90;99.90;;;;;;5116189;27;20051;-60
2022/05/29 00:49:09;;;;;;;77.97;73.93;;;9.90;99.90;;;;;;5136770;27;20047;-59
2022/05/29 00:51:39;;;;;;;76.20;72.25;;;9.90;99.90;;;;;;5137171;27;20043;-59
2022/05/29 00:54:06;;;;;;;86.38;81.40;;;9.90;99.90;;;;;;5114095;28;20128;-60
2022/05/29 00:56:36;;;;;;;75.22;70.97;;;9.80;99.90;;;;;;5116360;28;20058;-59
2022/05/29 00:59:02;;;;;;;73.93;70.10;;;9.90;99.90;;;;;;5127832;27;20118;-59
2022/05/29 01:01:29;;;;;;;75.88;71.85;;;9.90;99.90;;;;;;5135874;27;20126;-59
2022/05/29 01:03:55;;;;;;;75.78;70.97;;;9.90;99.90;;;;;;5136995;27;20039;-59
2022/05/29 01:06:22;;;;;;;73.55;69.45;;;9.90;99.90;;;;;;5136940;27;20087;-59
2022/05/29 01:08:48;;;;;;;75.47;71.38;;;9.90;99.90;;;;;;5135497;27;20079;-60
2022/05/29 01:11:34;;;;;;;73.20;69.57;;;9.90;99.90;;;;;;5136717;27;20043;-59
2022/05/29 01:14:14;;;;;;;73.20;69.05;;;10.00;99.90;;;;;;5117396;27;20051;-59
2022/05/29 01:16:46;;;;;;;77.75;73.25;;;10.00;99.90;;;;;;5135996;27;20076;-59
2022/05/29 01:19:39;;;;;;;69.75;66.03;;;10.00;99.90;;;;;;5118104;27;20051;-59
2022/05/29 01:22:13;;;;;;;;;;;10.00;99.90;;;;;;5117297;27;20047;-59
2022/05/29 01:24:58;;;;;;;118.50;112.60;;;10.00;99.90;;;;;;5135869;27;19923;-59
2022/05/29 01:27:47;;;;;;;85.90;81.45;;;10.10;99.90;;;;;;5136506;27;20057;-59
2022/05/29 01:30:13;;;;;;;129.40;123.28;;;10.10;99.90;;;;;;5135115;27;20075;-60
2022/05/29 01:32:58;;;;;;;127.55;121.78;;;10.10;99.90;;;;;;5136127;27;20124;-59
2022/05/29 01:35:35;;;;;;;122.28;116.40;;;10.20;99.90;;;;;;5135321;27;20401;-59
2022/05/29 01:38:15;;;;;;;121.45;115.60;;;10.20;99.90;;;;;;5135931;27;20130;-59
2022/05/29 01:40:52;;;;;;;117.10;111.55;;;10.20;99.90;;;;;;5135794;27;20477;-59
2022/05/29 01:43:27;;;;;;;112.63;107.03;;;10.20;99.90;;;;;;5134743;27;20066;-59
2022/05/29 01:45:57;;;;;;;120.32;114.55;;;10.30;99.90;;;;;;5117249;27;20486;-59
2022/05/29 01:48:35;;;;;;;116.20;109.90;;;10.30;99.90;;;;;;5136112;27;20405;-59
2022/05/29 01:51:12;;;;;;;117.13;111.55;;;10.40;99.90;;;;;;5134742;27;20396;-59
2022/05/29 01:53:42;;;;;;;99.05;94.47;;;10.40;99.90;;;;;;5099983;27;20073;-59
2022/05/29 01:56:17;;;;;;;84.13;79.13;;;10.40;99.90;;;;;;5135130;27;20046;-59
2022/05/29 01:58:50;;;;;;;87.13;82.70;;;10.40;99.90;;;;;;5135243;27;20047;-59
2022/05/29 02:01:19;;;;;;;81.00;76.63;;;10.40;99.90;;;;;;5113179;28;20096;-59
2022/05/29 02:03:50;;;;;;;90.80;85.53;;;10.40;99.90;;;;;;5114519;28;20051;-59
2022/05/29 02:06:29;;;;;;;89.50;84.72;;;10.40;99.90;;;;;;5115147;28;20047;-59
2022/05/29 02:09:00;;;;;;;70.07;65.93;;;10.40;99.90;;;;;;5118779;27;20050;-59
2022/05/29 02:11:28;;;;;;;67.45;63.35;;;10.40;99.90;;;;;;5135020;27;20091;-59
2022/05/29 02:14:01;;;;;;;70.20;65.55;;;10.30;99.90;;;;;;5135663;27;20047;-59
2022/05/29 02:16:27;;;;;;;;;;;10.40;99.90;;;;;;5117076;27;20059;-59
2022/05/29 02:18:59;;;;;;;77.65;73.70;;;10.30;99.90;;;;;;5134365;27;19919;-59
2022/05/29 02:21:38;;;;;;;89.05;84.45;;;10.30;99.90;;;;;;5135452;27;20051;-59
2022/05/29 02:24:09;;;;;;;94.05;89.05;;;10.30;99.90;;;;;;5114564;28;20066;-59
2022/05/29 02:26:43;;;;;;;105.85;99.78;;;10.20;99.90;;;;;;5096677;28;20124;-59
2022/05/29 02:29:12;;;;;;;114.93;109.13;;;10.20;99.90;;;;;;5114331;28;20048;-60
2022/05/29 02:32:00;;;;;;;115.43;109.55;;;10.10;99.90;;;;;;5112586;28;20048;-59
2022/05/29 02:34:40;;;;;;;107.53;102.28;;;10.10;99.90;;;;;;5114870;28;20172;-59
2022/05/29 02:37:21;;;;;;;112.50;106.90;;;10.10;99.90;;;;;;5132271;27;20043;-59
2022/05/29 02:40:00;;;;;;;119.65;113.65;;;10.10;99.90;;;;;;5134502;27;20102;-59
2022/05/29 02:42:37;;;;;;;134.38;127.95;;;10.10;99.90;;;;;;5116155;27;20050;-59
2022/05/29 02:45:23;;;;;;;158.52;151.00;;;10.10;99.90;;;;;;5134337;27;20047;-59
2022/05/29 02:48:04;;;;;;;149.30;142.20;;;10.00;99.90;;;;;;5134885;27;20528;-60
2022/05/29 02:50:52;;;;;;;157.27;149.88;;;10.00;99.90;;;;;;5115990;27;20054;-60
2022/05/29 02:53:18;;;;;;;158.70;151.48;;;10.00;99.90;;;;;;5133487;27;20092;-59
2022/05/29 02:55:44;;;;;;;172.68;163.95;;;10.00;99.90;;;;;;5126677;27;20126;-59
2022/05/29 02:58:18;;;;;;;159.02;151.57;;;10.00;99.90;;;;;;5112644;28;20048;-59
2022/05/29 03:00:53;;;;;;;169.77;161.32;;;9.90;99.90;;;;;;5113023;28;20052;-60
2022/05/29 03:03:25;;;;;;;172.98;164.73;;;9.90;99.90;;;;;;5110679;27;20184;-59
2022/05/29 03:06:24;;;;;;;185.60;176.48;;;9.90;99.90;;;;;;5115956;27;20053;-59
2022/05/29 03:09:05;;;;;;;159.65;152.35;;;9.80;99.90;;;;;;5115666;28;20490;-59
2022/05/29 03:11:45;;;;;;;142.90;136.02;;;9.80;99.90;;;;;;5112037;28;20047;-59
2022/05/29 03:14:25;;;;;;;161.00;153.48;;;9.80;99.90;;;;;;5112630;28;20043;-59
2022/05/29 03:17:09;;;;;;;158.23;150.60;;;9.80;99.90;;;;;;5112643;28;20101;-59
2022/05/29 03:19:45;;;;;;;149.75;142.50;;;9.80;99.90;;;;;;5116893;27;20050;-59
2022/05/29 03:22:20;;;;;;;167.10;159.20;;;9.80;99.90;;;;;;5132696;27;20511;-59
2022/05/29 03:24:58;;;;;;;152.18;144.93;;;9.80;99.90;;;;;;5115650;27;20051;-59
2022/05/29 03:27:31;;;;;;;131.75;124.75;;;9.80;99.90;;;;;;5134098;27;20043;-59
2022/05/29 03:30:09;;;;;;;146.85;139.27;;;9.80;99.90;;;;;;5133435;27;20054;-59
2022/05/29 03:32:36;;;;;;;124.07;117.85;;;9.80;99.90;;;;;;5134136;27;20043;-59
2022/05/29 03:35:23;;;;;;;126.07;119.72;;;9.90;99.90;;;;;;5133215;27;20473;-59
2022/05/29 03:37:50;;;;;;;107.93;102.82;;;10.00;99.90;;;;;;5133411;27;20141;-60
2022/05/29 03:40:16;;;;;;;98.70;93.25;;;10.00;99.90;;;;;;5115465;27;20054;-60
2022/05/29 03:42:42;;;;;;;109.53;104.03;;;10.10;99.90;;;;;;5133070;27;20104;-59
2022/05/29 03:45:08;;;;;;;110.25;104.90;;;10.10;99.90;;;;;;5133740;27;20489;-59
2022/05/29 03:47:36;;;;;;;107.95;102.53;;;10.10;99.90;;;;;;5133472;27;20039;-59
2022/05/29 03:50:03;;;;;;;103.43;98.55;;;10.10;99.90;;;;;;5132815;28;20114;-59
2022/05/29 03:52:31;;;;;;;103.85;98.25;;;10.10;99.90;;;;;;5133636;28;20524;-60
2022/05/29 03:54:58;;;;;;;102.68;97.35;;;10.10;99.90;;;;;;5133564;28;20031;-59
2022/05/29 03:57:23;;;;;;;115.93;110.10;;;10.00;99.90;;;;;;5133139;28;20446;-59
2022/05/29 03:59:49;;;;;;;129.25;122.88;;;10.00;99.90;;;;;;5133346;28;20035;-59
2022/05/29 04:02:15;;;;;;;135.15;128.90;;;10.00;99.90;;;;;;5115256;28;20054;-60
2022/05/29 04:04:41;;;;;;;129.95;123.50;;;9.90;99.90;;;;;;5132413;28;20086;-59
2022/05/29 04:07:07;;;;;;;138.07;130.80;;;9.90;99.90;;;;;;5133424;28;20049;-59
2022/05/29 04:12:17;;;;;;;118.90;112.70;;;9.90;99.90;;;;;;5133253;28;20043;-59
2022/05/29 04:14:44;;;;;;;126.70;120.32;;;9.90;99.90;;;;;;5112970;28;20047;-59
2022/05/29 04:17:14;;;;;;;127.90;121.70;;;9.90;99.90;;;;;;5094156;28;20400;-59
2022/05/29 04:19:39;;;;;;;119.15;112.10;;;9.90;99.90;;;;;;5113012;28;20489;-59
2022/05/29 04:22:07;;;;;;;106.53;101.63;;;10.00;99.90;;;;;;5129758;27;20035;-59
2022/05/29 04:24:33;;;;;;;113.90;108.38;;;10.00;99.90;;;;;;5137057;27;20043;-59
2022/05/29 04:26:59;;;;;;;99.28;94.45;;;10.10;99.90;;;;;;5137598;27;20108;-59
2022/05/29 04:29:25;;;;;;;86.68;82.22;;;10.10;99.90;;;;;;5137078;27;20035;-59
2022/05/29 04:34:36;;;;;;;92.57;88.03;;;10.10;99.90;;;;;;5137625;27;20043;-59
2022/05/29 04:37:03;;;;;;;107.72;102.07;;;10.10;99.90;;;;;;5137082;27;20130;-59
2022/05/29 04:39:32;;;;;;;111.90;106.07;;;10.10;99.90;;;;;;5136156;27;20047;-59
2022/05/29 04:41:59;;;;;;;121.97;116.10;;;10.20;99.90;;;;;;5136820;27;20542;-59
2022/05/29 04:44:25;;;;;;;98.15;92.60;;;10.20;99.90;;;;;;5118332;27;20047;-59
2022/05/29 04:46:50;;;;;;;88.40;83.68;;;10.20;99.90;;;;;;5136325;27;20103;-59
2022/05/29 04:49:16;;;;;;;91.32;86.47;;;10.20;99.90;;;;;;5114755;28;20062;-59
2022/05/29 04:51:42;;;;;;;98.75;93.78;;;10.20;99.90;;;;;;5116204;28;20520;-59
2022/05/29 04:54:07;;;;;;;73.05;68.80;;;10.20;99.90;;;;;;5120605;27;20050;-59
2022/05/29 04:56:33;;;;;;;75.13;71.15;;;10.20;99.90;;;;;;5135172;27;20057;-59
2022/05/29 04:58:59;;;;;;;92.68;87.50;;;10.20;99.90;;;;;;5135882;27;20400;-59
2022/05/29 05:01:24;;;;;;;98.03;92.90;;;10.20;99.90;;;;;;5118624;27;20047;-59
2022/05/29 05:03:50;;;;;;;99.18;94.13;;;10.20;99.90;;;;;;5136999;27;20050;-59
2022/05/29 05:06:16;;;;;;;94.78;89.53;;;10.20;99.90;;;;;;5135484;27;20046;-59
2022/05/29 05:08:42;;;;;;;85.80;80.93;;;10.20;99.90;;;;;;5136797;27;20050;-59
2022/05/29 05:11:07;;;;;;;81.65;76.60;;;10.30;99.90;;;;;;5136397;27;20488;-59
2022/05/29 05:13:33;;;;;;;73.63;69.18;;;10.30;99.90;;;;;;5135757;27;20396;-59
2022/05/29 05:16:02;;;;;;;79.07;74.57;;;10.30;99.90;;;;;;5136518;27;20043;-59
2022/05/29 05:18:29;;;;;;;95.60;90.65;;;10.30;99.90;;;;;;5118060;27;20118;-59
2022/05/29 05:20:54;;;;;;;85.65;80.93;;;10.30;99.90;;;;;;5135305;27;20131;-59
2022/05/29 05:23:20;;;;;;;101.85;96.57;;;10.30;99.90;;;;;;5135996;27;20138;-59
2022/05/29 05:25:46;;;;;;;117.25;111.25;;;10.30;99.90;;;;;;5117799;27;20047;-59
2022/05/29 05:28:12;;;;;;;101.75;96.78;;;10.40;99.90;;;;;;5116826;27;20047;-59
2022/05/29 05:30:37;;;;;;;114.88;109.45;;;10.40;99.90;;;;;;5136443;27;20118;-59
2022/05/29 05:33:03;;;;;;;93.82;89.13;;;10.40;99.90;;;;;;5135041;27;20392;-59
2022/05/29 05:35:29;;;;;;;94.75;89.88;;;10.40;99.90;;;;;;5116661;27;20090;-59
2022/05/29 05:37:56;;;;;;;114.65;108.63;;;10.50;99.90;;;;;;5135937;27;20071;-60
2022/05/29 05:40:23;;;;;;;106.55;100.90;;;10.50;99.90;;;;;;5135976;27;20043;-59
2022/05/29 05:42:48;;;;;;;105.55;100.57;;;10.50;99.90;;;;;;5134368;27;20059;-59
2022/05/29 05:45:14;;;;;;;112.45;107.28;;;10.50;99.90;;;;;;5136178;27;20039;-59
2022/05/29 05:47:41;;;;;;;96.88;92.00;;;10.60;99.90;;;;;;5136157;27;20055;-59
2022/05/29 05:50:09;;;;;;;99.43;94.45;;;10.50;99.90;;;;;;5134449;27;20120;-59
2022/05/29 05:52:36;;;;;;;103.43;97.82;;;10.60;99.90;;;;;;5135823;27;20035;-59
2022/05/29 05:55:04;;;;;;;95.47;90.65;;;10.70;99.90;;;;;;5135799;27;20130;-59
2022/05/29 05:57:30;;;;;;;93.88;89.22;;;10.60;99.90;;;;;;5134652;27;20597;-60
2022/05/29 05:59:56;;;;;;;93.00;88.18;;;10.60;99.90;;;;;;5135494;27;20047;-60
2022/05/29 06:02:23;;;;;;;112.50;106.45;;;10.60;99.90;;;;;;5134879;27;20047;-59
2022/05/29 06:04:49;;;;;;;103.35;98.05;;;10.60;99.90;;;;;;5135425;27;20495;-60
2022/05/29 06:07:15;;;;;;;79.22;75.03;;;10.60;99.90;;;;;;5135488;27;20065;-59
2022/05/29 06:09:41;;;;;;;78.55;74.10;;;10.50;99.90;;;;;;5134429;27;20451;-60
2022/05/29 06:12:07;;;;;;;87.68;82.88;;;10.50;99.90;;;;;;5135365;27;20134;-60
2022/05/29 06:14:34;;;;;;;61.78;58.50;;;10.50;99.90;;;;;;5116973;27;20520;-60
2022/05/29 06:17:01;;;;;;;65.03;61.08;;;10.50;99.90;;;;;;5134421;27;20170;-60
2022/05/29 06:19:27;;;;;;;78.10;73.75;;;10.40;99.90;;;;;;5135021;27;20473;-60
2022/05/29 06:21:53;;;;;;;65.53;61.80;;;10.40;99.90;;;;;;5135209;27;20050;-59
2022/05/29 06:24:19;;;;;;;81.93;77.95;;;10.50;99.90;;;;;;5134783;27;20039;-60
2022/05/29 06:26:44;;;;;;;86.13;81.55;;;10.40;99.90;;;;;;5112701;28;20047;-59
2022/05/29 06:29:10;;;;;;;64.28;60.72;;;10.40;99.90;;;;;;5114555;28;20059;-59
2022/05/29 06:31:36;;;;;;;78.95;75.00;;;10.40;99.90;;;;;;5114032;28;20051;-59
2022/05/29 06:34:02;;;;;;;63.72;59.80;;;10.40;99.90;;;;;;5115758;27;20040;-59
2022/05/29 06:36:28;;;;;;;70.35;66.82;;;10.50;99.90;;;;;;5135236;27;20107;-59
2022/05/29 06:38:55;;;;;;;73.47;69.78;;;10.50;99.90;;;;;;5134291;27;20039;-59
2022/05/29 06:41:24;;;;;;;101.00;96.10;;;10.50;99.90;;;;;;5115963;27;20050;-60
2022/05/29 06:43:51;;;;;;;106.45;100.50;;;10.40;99.90;;;;;;5134334;27;20125;-59
2022/05/29 06:46:17;;;;;;;113.05;108.05;;;10.40;99.90;;;;;;5134162;27;20043;-59
2022/05/29 06:48:43;;;;;;;130.77;124.15;;;10.40;99.90;;;;;;5134669;27;20082;-60
2022/05/29 06:51:11;;;;;;;157.80;150.57;;;10.30;99.90;;;;;;5134657;27;20043;-59
2022/05/29 06:53:38;;;;;;;197.68;188.68;;;10.30;99.90;;;;;;5133679;27;20050;-59
2022/05/29 06:56:05;;;;;;;194.70;185.63;;;10.30;99.90;;;;;;5134406;27;20043;-59
2022/05/29 06:58:30;;;;;;;189.60;181.18;;;10.30;99.90;;;;;;5133958;27;20050;-59
2022/05/29 07:09:17;;;;;;;188.55;179.68;;;10.40;99.90;;;;;;5134044;27;20417;-60
2022/05/29 07:11:44;;;;;;;181.43;173.15;;;10.50;99.90;;;;;;5134289;27;20039;-60
2022/05/29 07:14:10;;;;;;;149.90;142.82;;;10.50;99.90;;;;;;5133374;27;20489;-60
2022/05/29 07:16:37;;;;;;;156.35;148.27;;;10.50;99.90;;;;;;5134525;27;20039;-60
2022/05/29 07:19:04;;;;;;;118.13;112.07;;;10.50;99.90;;;;;;5133819;27;20053;-59
2022/05/29 07:21:33;;;;;;;118.43;112.57;;;10.30;99.90;;;;;;5114844;27;20518;-60
2022/05/29 07:24:00;;;;;;;171.40;163.55;;;10.40;99.90;;;;;;5113613;28;20108;-59
2022/05/29 07:26:26;;;;;;;198.20;189.50;;;10.40;99.90;;;;;;5113192;28;20131;-60
2022/05/29 07:28:52;;;;;;;208.50;198.90;;;10.40;99.90;;;;;;5129371;27;20118;-59
2022/05/29 07:31:18;;;;;;;204.63;195.20;;;10.40;99.90;;;;;;5134110;27;20039;-59
2022/05/29 07:33:44;;;;;;;138.02;131.38;;;10.50;99.90;;;;;;5133060;27;20174;-60
2022/05/29 07:36:11;;;;;;;150.45;143.32;;;10.40;99.90;;;;;;5133918;27;20501;-60
2022/05/29 07:38:38;;;;;;;130.57;124.05;;;10.50;99.90;;;;;;5134228;27;20072;-60
2022/05/29 07:43:18;;;;;;;109.25;104.10;;;10.40;99.90;;;;;;5114057;27;20054;-60
2022/05/29 07:43:52;;;;;;;97.03;92.25;;;10.40;99.90;;;;;;5133886;27;20043;-59
2022/05/29 07:46:18;;;;;;;108.93;103.60;;;10.30;99.90;;;;;;5133555;27;20039;-60
2022/05/29 07:48:44;;;;;;;112.82;107.28;;;10.30;99.90;;;;;;5132951;27;20401;-60
2022/05/29 07:51:10;;;;;;;163.07;155.65;;;10.40;99.90;;;;;;5133810;28;20043;-60
2022/05/29 07:53:37;;;;;;;210.70;201.40;;;10.40;99.90;;;;;;5133436;28;20039;-60
2022/05/29 07:56:04;;;;;;;141.13;134.52;;;10.50;99.90;;;;;;5132390;27;20141;-60
2022/05/29 07:58:29;;;;;;;135.35;129.35;;;10.60;99.90;;;;;;5133832;28;20469;-60
2022/05/29 08:00:55;;;;;;;96.15;91.65;;;10.70;99.90;;;;;;5133833;28;20122;-60
2022/05/29 08:03:23;;;;;;;59.97;57.08;;;10.90;99.90;;;;;;5132493;28;20465;-60
2022/05/29 08:05:49;;;;;;;66.07;62.40;;;11.00;99.90;;;;;;5133617;28;20138;-59
2022/05/29 08:08:15;;;;;;;62.97;59.80;;;11.10;99.90;;;;;;5133370;28;20130;-60
2022/05/29 08:10:42;;;;;;;60.03;57.03;;;11.10;99.90;;;;;;5132586;28;20043;-60
2022/05/29 08:13:09;;;;;;;81.28;77.35;;;11.10;99.90;;;;;;5111718;28;20043;-60
2022/05/29 08:15:36;;;;;;;85.60;81.22;;;11.10;99.90;;;;;;5101901;28;20047;-60
2022/05/29 08:18:04;;;;;;;114.90;109.63;;;11.00;99.90;;;;;;5112641;28;20527;-60
2022/05/29 08:20:31;;;;;;;102.10;97.47;;;10.80;99.90;;;;;;5120828;28;20063;-60
2022/05/29 08:22:57;;;;;;;112.35;106.95;;;10.80;99.90;;;;;;5131625;28;20040;-60
2022/05/29 08:30:54;;;;;;;166.15;158.07;;;10.70;99.90;;;;;;5131608;28;20066;-60
2022/05/29 08:33:24;;;;;;;118.43;113.05;;;10.90;99.90;;;;;;5132616;28;20405;-59
2022/05/29 08:35:56;;;;;;;66.15;62.55;;;10.90;99.90;;;;;;5133084;28;20043;-59
2022/05/29 08:38:23;;;;;;;72.37;69.07;;;11.00;99.90;;;;;;5132214;28;20035;-60
2022/05/29 08:40:58;;;;;;;59.20;56.15;;;11.10;99.90;;;;;;5132506;28;20051;-60
2022/05/29 08:43:27;;;;;;;72.53;68.40;;;11.10;99.90;;;;;;5114456;28;20071;-60
2022/05/29 08:45:53;;;;;;;71.50;67.50;;;11.10;99.90;;;;;;5132173;28;20093;-59
2022/05/29 08:48:24;;;;;;;74.80;70.85;;;11.20;99.90;;;;;;5131900;28;20050;-60
2022/05/29 08:51:20;;;;;;;75.45;71.82;;;11.20;99.90;;;;;;5133096;28;20051;-59
2022/05/29 08:54:00;;;;;;;94.50;89.60;;;11.30;99.90;;;;;;5133016;28;20043;-60
2022/05/29 08:56:35;;;;;;;80.10;76.15;;;11.30;99.90;;;;;;5132128;28;21345;-60
2022/05/29 08:59:23;;;;;;;104.75;99.68;;;11.30;99.90;;;;;;5132272;28;20500;-60
2022/05/29 09:02:04;;;;;;;109.53;104.63;;;11.20;99.90;;;;;;5114067;28;20059;-60
2022/05/29 09:04:36;;;;;;;78.10;74.30;;;11.20;99.90;;;;;;5132458;28;20047;-59
2022/05/29 09:07:05;;;;;;;105.45;100.72;;;11.30;99.90;;;;;;5128832;27;20047;-59
2022/05/29 09:09:36;;;;;;;87.38;83.43;;;11.50;99.90;;;;;;5115572;28;20031;-60
2022/05/29 09:12:06;;;;;;;85.03;81.13;;;11.60;99.90;;;;;;5116199;28;20048;-60
2022/05/29 09:14:48;;;;;;;96.28;91.15;;;11.70;99.90;;;;;;5115948;27;20493;-60
2022/05/29 09:17:31;;;;;;;91.85;87.35;;;11.70;99.90;;;;;;5136230;27;20047;-60
2022/05/29 09:20:00;;;;;;;;;;;11.60;99.90;;;;;;5136205;27;20141;-60
2022/05/29 09:22:29;;;;;;;113.25;108.35;;;11.40;99.90;;;;;;5135367;27;20445;-60
2022/05/29 09:25:06;;;;;;;130.98;124.82;;;11.40;99.90;;;;;;5116967;27;20043;-60
2022/05/29 09:27:34;;;;;;;114.80;109.47;;;11.40;99.90;;;;;;5114650;28;20131;-60
2022/05/29 09:30:00;;;;;;;113.40;108.10;;;11.40;99.90;;;;;;5115692;28;20039;-59
2022/05/29 09:32:30;;;;;;;114.40;109.22;;;11.60;99.90;;;;;;5128378;27;20130;-60
2022/05/29 09:34:59;;;;;;;104.47;99.72;;;11.90;99.90;;;;;;5135400;27;20047;-60
2022/05/29 09:37:43;;;;;;;63.28;60.33;;;12.10;99.90;;;;;;5136104;27;20097;-59
2022/05/29 09:40:20;;;;;;;62.25;58.97;;;12.40;99.90;;;;;;5135239;27;20114;-60
2022/05/29 09:42:48;;;;;;;53.63;50.58;;;12.50;99.90;;;;;;5135197;27;20055;-60
2022/05/29 09:45:25;;;;;;;49.67;47.00;;;12.40;99.90;;;;;;5135858;27;20047;-59
2022/05/29 09:50:43;;;;;;;89.85;85.60;;;12.10;99.90;;;;;;5134880;27;20058;-60
2022/05/29 09:53:20;;;;;;;72.63;69.30;;;12.00;99.90;;;;;;5135536;27;20125;-59
2022/05/29 09:55:50;;;;;;;53.97;51.00;;;12.00;99.90;;;;;;5134979;27;20046;-60
2022/05/29 09:58:22;;;;;;;83.47;79.10;;;12.10;99.90;;;;;;5121898;27;20039;-60
2022/05/29 10:01:01;;;;;;;58.05;54.78;;;12.10;99.90;;;;;;5114354;28;20048;-60
2022/05/29 10:03:40;;;;;;;70.18;66.60;;;12.20;99.90;;;;;;5129161;27;20454;-60
2022/05/29 10:06:14;;;;;;;43.72;40.78;;;12.20;99.90;;;;;;5135625;27;20058;-60
2022/05/29 10:08:40;;;;;;;42.78;40.55;;;12.20;99.90;;;;;;5133431;27;20051;-59
2022/05/29 10:11:20;;;;;;;43.72;41.60;;;12.10;99.90;;;;;;5135322;27;20108;-59
2022/05/29 10:13:46;;;;;;;46.28;43.40;;;12.10;99.90;;;;;;5135348;27;20078;-60
2022/05/29 10:16:28;;;;;;;69.18;65.75;;;12.20;99.90;;;;;;5109492;27;20043;-60
2022/05/29 10:18:53;;;;;;;50.67;48.17;;;12.20;99.90;;;;;;5134744;27;20057;-60
2022/05/29 10:21:29;;;;;;;55.25;52.65;;;12.20;99.90;;;;;;5134893;27;20051;-60
2022/05/29 10:24:11;;;;;;;45.13;42.88;;;12.30;99.90;;;;;;5134053;27;20122;-60
2022/05/29 10:26:37;;;;;;;41.55;39.17;;;12.60;99.90;;;;;;5130896;27;20042;-60
2022/05/29 10:29:18;;;;;;;51.05;48.60;;;12.80;99.90;;;;;;5135090;27;20054;-59
2022/05/29 10:31:47;;;;;;;53.55;50.80;;;13.00;99.90;;;;;;5133852;27;20478;-60
2022/05/29 10:34:21;;;;;;;60.65;57.35;;;13.10;99.90;;;;;;5133599;27;20065;-60
2022/05/29 10:36:47;;;;;;;59.22;56.33;;;13.10;99.90;;;;;;5115751;27;20193;-60
2022/05/29 10:39:20;;;;;;;54.28;51.38;;;13.00;99.90;;;;;;5116247;27;20456;-60
2022/05/29 10:41:47;;;;;;;83.43;79.55;;;12.90;99.90;;;;;;5133949;27;20090;-60
2022/05/29 10:44:36;;;;;;;74.25;70.38;;;12.60;99.90;;;;;;5106098;28;20051;-60
2022/05/29 10:47:08;;;;;;;101.45;97.07;;;12.50;99.90;;;;;;5113903;28;20067;-60
2022/05/29 10:49:56;;;;;;;65.78;62.20;;;12.50;99.90;;;;;;5114162;28;20083;-60
2022/05/29 10:52:44;;;;;;;67.95;64.60;;;12.60;99.90;;;;;;5128013;27;20480;-60
2022/05/29 10:55:22;;;;;;;54.67;51.78;;;12.70;99.90;;;;;;5134129;27;20046;-60
2022/05/29 10:58:20;;;;;;;63.05;59.80;;;12.80;99.90;;;;;;5132254;27;20047;-60
2022/05/29 11:04:13;;;;;;;53.47;50.17;;;13.10;99.90;;;;;;5131530;27;20049;-60
2022/05/29 11:07:02;;;;;;;53.80;50.67;;;13.20;99.90;;;;;;5130395;27;20405;-60
2022/05/29 11:09:37;;;;;;;54.55;51.60;;;13.10;99.90;;;;;;5113541;27;20047;-60
2022/05/29 11:12:12;;;;;;;53.92;51.13;;;13.00;99.90;;;;;;5133698;27;20053;-60
2022/05/29 11:14:45;;;;;;;55.30;52.25;;;13.00;99.90;;;;;;5134063;27;20049;-60
2022/05/29 11:17:36;;;;;;;62.83;59.60;;;12.90;99.90;;;;;;5134112;27;20083;-60
2022/05/29 11:20:11;;;;;;;58.13;55.13;;;12.90;99.90;;;;;;5133380;27;20050;-60
2022/05/29 11:22:42;;;;;;;74.53;70.95;;;12.70;99.90;;;;;;5105869;28;20398;-60
2022/05/29 11:25:16;;;;;;;64.72;61.00;;;12.70;99.90;;;;;;5113897;28;20043;-60
2022/05/29 11:27:59;;;;;;;82.53;78.57;;;12.70;99.90;;;;;;5127933;27;20039;-60
2022/05/29 11:30:49;;;;;;;86.25;81.82;;;12.70;99.90;;;;;;5114260;28;20410;-60
2022/05/29 11:33:34;;;;;;;92.15;87.47;;;12.90;99.90;;;;;;5133338;27;20477;-60
2022/05/29 11:36:13;;;;;;;79.43;75.53;;;13.10;99.90;;;;;;5133897;27;20043;-60
2022/05/29 11:38:43;;;;;;;78.38;74.38;;;13.40;99.90;;;;;;5133357;27;20062;-60
2022/05/29 11:41:19;;;;;;;56.90;53.80;;;13.50;99.90;;;;;;5133022;27;20050;-60
2022/05/29 11:44:01;;;;;;;53.13;50.20;;;13.50;99.90;;;;;;5133746;27;20180;-60
2022/05/29 11:52:23;;;;;;;49.53;47.00;;;13.90;99.90;;;;;;5115365;28;20050;-60
2022/05/29 11:54:54;;;;;;;52.38;49.58;;;14.10;99.90;;;;;;5132060;28;20250;-60
2022/05/29 11:57:42;;;;;;;53.10;50.42;;;14.10;99.90;;;;;;5133405;28;20043;-60
2022/05/29 12:00:18;;;;;;;62.90;59.65;;;14.00;99.90;;;;;;5114079;28;20039;-60
2022/05/29 12:03:12;;;;;;;48.72;45.88;;;13.80;99.90;;;;;;5128720;28;20100;-60
2022/05/29 12:05:45;;;;;;;48.15;45.53;;;13.70;99.90;;;;;;5132013;28;20714;-60
2022/05/29 12:08:24;;;;;;;56.58;53.33;;;13.70;99.90;;;;;;5129717;28;20071;-60
2022/05/29 12:11:32;;;;;;;57.63;54.47;;;13.60;99.90;;;;;;5130283;28;20042;-60
2022/05/29 12:14:19;;;;;;;60.58;57.50;;;13.50;99.90;;;;;;5133092;28;20055;-60
2022/05/29 12:16:48;;;;;;;67.40;63.60;;;13.30;99.90;;;;;;5132945;28;20126;-60
2022/05/29 12:19:25;;;;;;;63.28;60.10;;;13.20;99.90;;;;;;5133297;28;20046;-60
2022/05/29 12:21:59;;;;;;;58.60;54.97;;;13.20;99.90;;;;;;5132804;28;20130;-60
2022/05/29 12:24:28;;;;;;;56.70;53.80;;;13.20;99.90;;;;;;5113911;28;20070;-60
2022/05/29 12:27:08;;;;;;;62.17;59.10;;;13.20;99.90;;;;;;5132904;28;20358;-60
2022/05/29 12:29:38;;;;;;;64.28;61.20;;;13.30;99.90;;;;;;5132031;28;20103;-60
2022/05/29 12:32:14;;;;;;;61.90;58.40;;;13.40;99.90;;;;;;5133592;28;20046;-60
2022/05/29 12:34:50;;;;;;;68.32;64.53;;;13.40;99.90;;;;;;5133696;28;20058;-60
2022/05/29 12:37:42;;;;;;;59.08;55.78;;;13.60;99.90;;;;;;5110214;28;20051;-60
2022/05/29 12:40:42;;;;;;;59.60;56.58;;;13.60;99.90;;;;;;5112756;28;20513;-60
2022/05/29 12:43:22;;;;;;;63.45;60.53;;;13.70;99.90;;;;;;5114356;27;20127;-60
2022/05/29 12:46:01;;;;;;;64.82;61.58;;;13.80;99.90;;;;;;5136959;27;20114;-60
2022/05/29 12:48:56;;;;;;;73.13;69.28;;;13.70;99.90;;;;;;5137357;27;20058;-59
2022/05/29 12:51:58;;;;;;;67.88;64.22;;;13.50;99.90;;;;;;5120691;27;20438;-60
2022/05/29 12:54:45;;;;;;;62.22;59.15;;;13.30;99.90;;;;;;5136431;27;20031;-60
2022/05/29 12:57:15;;;;;;;84.72;80.22;;;13.00;99.90;;;;;;5133407;27;20477;-60
2022/05/29 12:59:52;;;;;;;74.45;70.43;;;12.80;99.90;;;;;;5136126;27;20059;-60
2022/05/29 13:02:32;;;;;;;76.63;72.28;;;12.60;99.90;;;;;;5136938;27;20435;-60
2022/05/29 13:05:21;;;;;;;72.00;68.35;;;12.40;99.90;;;;;;5135652;27;20047;-60
2022/05/29 13:07:54;;;;;;;74.82;70.97;;;12.30;99.90;;;;;;5125925;27;20050;-60
2022/05/29 13:10:27;;;;;;;62.35;58.63;;;12.20;99.90;;;;;;5115749;28;20470;-60
2022/05/29 13:13:18;;;;;;;65.78;62.53;;;12.30;99.90;;;;;;5121781;27;20047;-60
2022/05/29 13:15:45;;;;;;;55.15;51.85;;;12.10;99.90;;;;;;5135858;27;20558;-59
2022/05/29 13:21:08;;;;;;;57.08;53.33;;;12.20;99.90;;;;;;5135845;27;20074;-60